Time;durP1;ratioP1;P1;durP2;ratioP2;P2;SDS_P1;SDS_P2;PMS_P1;PMS_P2;Temp;Humidity;BMP_temperature;BMP_pressure;BME280_temperature;BME280_humidity;BME280_pressure;Samples;Min_cycle;Max_cycle;Signal;HPM_P1;HPM_P2
2023/01/08 00:01:51;;;;;;;1.88;1.05;;;10.20;99.90;;;;;;5035951;28;20052;-58
2023/01/08 00:04:17;;;;;;;2.00;1.70;;;10.20;99.90;;;;;;5046285;28;20119;-61
2023/01/08 00:06:43;;;;;;;2.87;1.63;;;10.20;99.90;;;;;;5051477;28;20926;-59
2023/01/08 00:09:09;;;;;;;2.90;1.45;;;10.20;99.90;;;;;;5051724;28;20045;-58
2023/01/08 00:11:35;;;;;;;3.45;1.02;;;10.20;99.90;;;;;;5052401;28;20045;-61
2023/01/08 00:14:01;;;;;;;2.17;2.03;;;10.20;99.90;;;;;;5050759;28;20040;-57
2023/01/08 00:16:27;;;;;;;2.03;1.73;;;10.20;99.90;;;;;;5051263;28;20045;-59
2023/01/08 00:18:53;;;;;;;4.35;1.20;;;10.20;99.90;;;;;;5050612;28;20040;-58
2023/01/08 00:21:19;;;;;;;1.97;1.77;;;10.20;99.90;;;;;;5051865;28;20506;-59
2023/01/08 00:23:45;;;;;;;6.82;1.73;;;10.20;99.90;;;;;;5050911;28;20041;-59
2023/01/08 00:26:10;;;;;;;1.50;1.00;;;10.20;99.90;;;;;;5051372;28;20041;-59
2023/01/08 00:28:37;;;;;;;1.63;1.27;;;10.20;99.90;;;;;;5051022;28;20036;-60
2023/01/08 00:31:04;;;;;;;1.95;1.33;;;10.10;99.90;;;;;;5051351;28;20094;-59
2023/01/08 00:33:30;;;;;;;2.17;1.30;;;10.10;99.90;;;;;;5050249;28;20073;-59
2023/01/08 00:35:56;;;;;;;1.23;0.98;;;10.10;99.90;;;;;;5051086;28;20068;-60
2023/01/08 00:38:28;;;;;;;3.37;1.07;;;10.10;99.90;;;;;;5050938;28;20075;-58
2023/01/08 00:40:54;;;;;;;3.00;1.40;;;10.10;99.90;;;;;;5051593;28;20287;-60
2023/01/08 00:43:19;;;;;;;2.37;1.20;;;10.10;99.90;;;;;;5065724;28;20577;-58
2023/01/08 00:45:45;;;;;;;2.08;1.65;;;10.10;99.90;;;;;;5050321;28;20045;-59
2023/01/08 00:48:11;;;;;;;2.70;1.38;;;10.10;99.90;;;;;;5049873;28;20053;-59
2023/01/08 00:50:36;;;;;;;1.57;1.40;;;10.10;99.90;;;;;;5051249;28;20037;-59
2023/01/08 00:53:02;;;;;;;3.15;1.58;;;10.00;99.90;;;;;;5050343;28;20108;-60
2023/01/08 00:55:28;;;;;;;1.90;1.80;;;10.00;99.90;;;;;;5049619;28;20037;-59
2023/01/08 00:57:54;;;;;;;4.32;1.27;;;10.00;99.90;;;;;;5049561;28;20055;-58
2023/01/08 01:00:20;;;;;;;4.05;1.75;;;10.00;99.90;;;;;;5050033;28;20055;-56
2023/01/08 01:02:46;;;;;;;1.77;1.48;;;10.00;99.90;;;;;;5051391;28;20124;-59
2023/01/08 01:05:16;;;;;;;1.63;1.52;;;10.00;99.90;;;;;;5041184;28;20029;-59
2023/01/08 01:07:45;;;;;;;4.07;1.58;;;10.00;99.90;;;;;;5029637;28;20050;-59
2023/01/08 01:10:12;;;;;;;2.97;1.40;;;10.00;99.90;;;;;;5038155;28;20557;-60
2023/01/08 01:12:38;;;;;;;1.83;1.42;;;10.00;99.90;;;;;;5050386;28;20068;-59
2023/01/08 01:15:06;;;;;;;4.38;2.05;;;10.00;99.90;;;;;;5049132;28;20076;-60
2023/01/08 01:17:31;;;;;;;1.63;1.40;;;10.00;99.90;;;;;;5050280;28;20032;-57
2023/01/08 01:19:57;;;;;;;1.93;1.60;;;10.00;99.90;;;;;;5050534;28;20044;-60
2023/01/08 01:22:22;;;;;;;3.73;1.70;;;10.00;99.90;;;;;;5050919;28;20453;-57
2023/01/08 01:24:48;;;;;;;3.10;1.50;;;10.00;99.90;;;;;;5048760;28;20044;-57
2023/01/08 01:27:13;;;;;;;2.67;1.40;;;10.00;99.90;;;;;;5050077;28;20053;-59
2023/01/08 01:29:39;;;;;;;2.33;1.70;;;10.00;99.90;;;;;;5049914;28;20069;-60
2023/01/08 01:32:05;;;;;;;3.33;1.37;;;10.00;99.90;;;;;;5050937;28;20040;-57
2023/01/08 01:34:30;;;;;;;2.80;1.20;;;10.00;99.90;;;;;;5049572;28;20043;-59
2023/01/08 01:36:56;;;;;;;3.63;1.95;;;10.00;99.90;;;;;;5049866;28;20440;-62
2023/01/08 01:39:22;;;;;;;2.37;2.07;;;10.00;99.90;;;;;;5049813;28;20076;-61
2023/01/08 01:41:48;;;;;;;2.80;1.05;;;10.00;99.90;;;;;;5050024;28;20040;-58
2023/01/08 01:44:43;;;;;;;7.60;0.88;;;10.00;99.90;;;;;;5048470;28;20082;-57
2023/01/08 01:47:22;;;;;;;2.22;0.32;;;9.90;99.90;;;;;;5049169;28;20528;-56
2023/01/08 01:49:57;;;;;;;3.75;0.70;;;9.80;99.90;;;;;;5050019;28;20041;-60
2023/01/08 01:52:24;;;;;;;3.88;1.20;;;9.70;99.90;;;;;;5049874;28;20041;-61
2023/01/08 01:54:51;;;;;;;4.90;0.70;;;9.60;99.90;;;;;;5048167;28;20052;-57
2023/01/08 01:57:17;;;;;;;3.15;0.50;;;9.50;99.90;;;;;;5049341;28;20071;-57
2023/01/08 01:59:44;;;;;;;3.97;0.98;;;9.50;99.90;;;;;;5049681;28;20608;-60
2023/01/08 02:02:10;;;;;;;2.92;0.60;;;9.50;99.90;;;;;;5049872;28;20047;-56
2023/01/08 02:04:36;;;;;;;4.03;0.30;;;9.40;99.90;;;;;;5048436;28;20067;-59
2023/01/08 02:07:15;;;;;;;6.17;0.70;;;9.30;99.90;;;;;;5049379;28;20044;-58
2023/01/08 02:09:50;;;;;;;5.70;0.60;;;9.30;99.90;;;;;;5049576;28;20459;-59
2023/01/08 02:12:38;;;;;;;6.00;1.02;;;9.20;99.90;;;;;;5049853;28;20041;-60
2023/01/08 02:15:38;;;;;;;3.45;0.30;;;9.20;99.90;;;;;;5048595;28;20041;-59
2023/01/08 02:18:08;;;;;;;1.95;0.70;;;9.10;99.90;;;;;;5049163;28;20047;-56
2023/01/08 02:20:40;;;;;;;3.45;0.50;;;9.10;99.90;;;;;;5048056;28;20555;-57
2023/01/08 02:23:43;;;;;;;4.10;0.93;;;9.10;99.90;;;;;;5049067;28;20033;-58
2023/01/08 02:26:25;;;;;;;3.10;0.30;;;9.10;99.90;;;;;;5030326;28;20057;-59
2023/01/08 02:29:08;;;;;;;1.77;0.30;;;9.00;99.90;;;;;;5048212;28;20199;-59
2023/01/08 02:31:36;;;;;;;3.00;0.30;;;9.00;99.90;;;;;;5049848;28;20045;-59
2023/01/08 02:34:02;;;;;;;1.58;0.50;;;9.00;99.90;;;;;;5048019;28;20041;-57
2023/01/08 02:36:42;;;;;;;1.00;0.50;;;9.00;99.90;;;;;;5048701;28;20576;-59
2023/01/08 02:39:13;;;;;;;1.83;0.75;;;9.00;99.90;;;;;;5048960;28;20056;-59
2023/01/08 02:41:44;;;;;;;2.22;0.90;;;9.00;99.90;;;;;;5049366;28;20456;-57
2023/01/08 02:44:16;;;;;;;3.28;1.30;;;9.10;99.90;;;;;;5048559;28;20048;-59
2023/01/08 02:46:42;;;;;;;3.00;1.40;;;9.10;99.90;;;;;;5048484;28;20051;-57
2023/01/08 02:49:09;;;;;;;;;;;9.20;99.90;;;;;;5049915;28;20044;-59
2023/01/08 02:51:50;;;;;;;4.35;1.98;;;9.20;99.90;;;;;;5048844;28;20235;-57
2023/01/08 02:54:21;;;;;;;4.13;2.75;;;9.30;99.90;;;;;;5047790;28;20698;-59
2023/01/08 02:56:55;;;;;;;5.63;2.58;;;9.40;99.90;;;;;;5048535;28;20048;-56
2023/01/08 02:59:22;;;;;;;3.15;2.83;;;9.40;99.90;;;;;;5048815;28;20406;-58
2023/01/08 03:01:48;;;;;;;4.35;2.70;;;9.40;99.90;;;;;;5048243;28;20029;-57
2023/01/08 03:04:20;;;;;;;3.17;1.98;;;9.40;99.90;;;;;;5048322;28;20041;-59
2023/01/08 03:06:46;;;;;;;6.88;3.00;;;9.50;99.90;;;;;;5049058;28;20048;-57
2023/01/08 03:09:14;;;;;;;4.93;2.08;;;9.50;99.90;;;;;;5053219;28;20502;-58
2023/01/08 03:11:58;;;;;;;7.03;2.33;;;9.50;99.90;;;;;;5052485;28;20079;-58
2023/01/08 03:14:56;;;;;;;5.05;2.33;;;9.60;99.90;;;;;;5052589;28;20044;-57
2023/01/08 03:17:32;;;;;;;7.88;2.85;;;9.60;99.90;;;;;;5052545;28;20985;-57
2023/01/08 03:20:20;;;;;;;3.17;2.00;;;9.60;99.90;;;;;;5052601;28;20037;-60
2023/01/08 03:22:49;;;;;;;5.88;1.95;;;9.70;99.90;;;;;;5053040;28;20386;-59
2023/01/08 03:25:18;;;;;;;3.33;1.90;;;9.70;99.90;;;;;;5051701;28;20044;-60
2023/01/08 03:27:48;;;;;;;4.85;2.00;;;9.70;99.90;;;;;;5052217;28;20028;-57
2023/01/08 03:30:16;;;;;;;7.93;2.20;;;9.70;99.90;;;;;;5053311;28;20127;-60
2023/01/08 03:32:43;;;;;;;3.92;2.60;;;9.80;99.90;;;;;;5052409;28;20091;-56
2023/01/08 03:35:11;;;;;;;6.18;2.83;;;9.70;99.90;;;;;;5051527;28;20386;-57
2023/01/08 03:37:42;;;;;;;6.75;3.58;;;9.70;99.90;;;;;;5051706;28;20049;-60
2023/01/08 03:40:20;;;;;;;10.40;3.10;;;9.70;99.90;;;;;;5053157;28;20041;-59
2023/01/08 03:42:46;;;;;;;8.07;3.88;;;9.70;99.90;;;;;;5052469;28;20041;-59
2023/01/08 03:45:11;;;;;;;3.78;2.45;;;9.60;99.90;;;;;;5051115;28;20040;-59
2023/01/08 03:47:40;;;;;;;6.45;2.78;;;9.60;99.90;;;;;;5051811;28;20422;-58
2023/01/08 03:50:10;;;;;;;7.82;2.40;;;9.60;99.90;;;;;;5051856;28;20044;-58
2023/01/08 03:52:36;;;;;;;4.93;2.30;;;9.60;99.90;;;;;;5051794;28;20482;-60
2023/01/08 03:55:02;;;;;;;4.03;2.50;;;9.60;99.90;;;;;;5050187;28;20119;-59
2023/01/08 03:57:27;;;;;;;5.95;3.13;;;9.50;99.90;;;;;;5051150;28;20502;-59
2023/01/08 03:59:53;;;;;;;7.67;2.87;;;9.50;99.90;;;;;;5051555;28;20056;-60
2023/01/08 04:02:19;;;;;;;3.50;2.37;;;9.50;99.90;;;;;;5052846;28;20047;-57
2023/01/08 04:04:44;;;;;;;5.33;3.53;;;9.50;99.90;;;;;;5050158;28;20308;-58
2023/01/08 04:07:11;;;;;;;4.03;3.00;;;9.50;99.90;;;;;;5051804;28;20051;-60
2023/01/08 04:09:37;;;;;;;7.43;3.47;;;9.50;99.90;;;;;;5050161;28;20038;-58
2023/01/08 04:12:03;;;;;;;7.27;3.63;;;9.50;99.90;;;;;;5051261;28;20059;-60
2023/01/08 04:14:28;;;;;;;5.22;2.83;;;9.40;99.90;;;;;;5050315;28;20291;-57
2023/01/08 04:16:54;;;;;;;7.70;2.77;;;9.40;99.90;;;;;;5050317;28;20073;-59
2023/01/08 04:19:19;;;;;;;8.63;3.73;;;9.40;99.90;;;;;;5044205;28;20295;-57
2023/01/08 04:21:45;;;;;;;2.87;2.50;;;9.40;99.90;;;;;;5051734;28;20037;-59
2023/01/08 04:24:11;;;;;;;3.50;3.13;;;9.40;99.90;;;;;;5050442;28;20040;-59
2023/01/08 04:26:37;;;;;;;2.42;1.80;;;9.30;99.90;;;;;;5051258;28;20608;-60
2023/01/08 04:29:03;;;;;;;5.57;2.27;;;9.30;99.90;;;;;;5051381;28;20040;-60
2023/01/08 04:31:29;;;;;;;4.20;2.03;;;9.30;99.90;;;;;;5051798;28;20040;-60
2023/01/08 04:33:55;;;;;;;5.30;2.75;;;9.30;99.90;;;;;;5051003;28;20082;-59
2023/01/08 04:36:21;;;;;;;16.20;3.57;;;9.30;99.90;;;;;;5051125;28;20049;-60
2023/01/08 04:38:46;;;;;;;6.28;3.10;;;9.20;99.90;;;;;;5051366;28;20052;-59
2023/01/08 04:41:12;;;;;;;3.27;2.93;;;9.30;99.90;;;;;;5050919;28;20044;-60
2023/01/08 04:43:37;;;;;;;4.23;1.97;;;9.30;99.90;;;;;;5050516;28;20044;-59
2023/01/08 04:46:06;;;;;;;4.45;2.65;;;9.30;99.90;;;;;;5051129;28;20032;-61
2023/01/08 04:48:32;;;;;;;6.88;3.05;;;9.30;99.90;;;;;;5051025;28;20060;-59
2023/01/08 04:50:59;;;;;;;6.63;1.88;;;9.30;99.90;;;;;;5050971;28;20045;-57
2023/01/08 04:53:25;;;;;;;4.72;1.83;;;9.30;99.90;;;;;;5050628;28;20041;-58
2023/01/08 04:55:51;;;;;;;5.90;2.10;;;9.30;99.90;;;;;;5050365;28;20047;-57
2023/01/08 04:58:17;;;;;;;7.10;2.30;;;9.30;99.90;;;;;;5051032;28;20417;-58
2023/01/08 05:00:42;;;;;;;2.00;1.60;;;9.30;99.90;;;;;;5051027;28;20036;-58
2023/01/08 05:03:08;;;;;;;2.83;1.33;;;9.30;99.90;;;;;;5050248;28;20037;-61
2023/01/08 05:05:34;;;;;;;6.40;1.00;;;9.20;99.90;;;;;;5050189;28;20314;-57
2023/01/08 05:08:00;;;;;;;1.80;0.80;;;9.30;99.90;;;;;;5050690;28;20059;-57
2023/01/08 05:10:25;;;;;;;6.87;1.17;;;9.20;99.90;;;;;;5050956;28;20500;-60
2023/01/08 05:12:51;;;;;;;3.23;1.30;;;9.10;99.90;;;;;;5048919;28;20311;-62
2023/01/08 05:15:16;;;;;;;4.27;0.97;;;9.10;99.90;;;;;;5050171;28;20064;-59
2023/01/08 05:17:42;;;;;;;3.40;0.83;;;9.00;99.90;;;;;;5050579;28;20114;-57
2023/01/08 05:20:08;;;;;;;3.37;0.90;;;9.00;99.90;;;;;;5050083;28;20048;-60
2023/01/08 05:22:34;;;;;;;3.25;0.70;;;8.90;99.90;;;;;;5050827;28;20318;-56
2023/01/08 05:25:00;;;;;;;6.57;0.65;;;8.90;99.90;;;;;;5048646;28;20091;-59
2023/01/08 05:27:27;;;;;;;5.20;0.77;;;8.80;99.90;;;;;;5050250;28;20048;-59
2023/01/08 05:29:53;;;;;;;3.08;0.63;;;8.80;99.90;;;;;;5049479;28;20615;-59
2023/01/08 05:32:19;;;;;;;3.90;0.60;;;8.70;99.90;;;;;;5050357;28;20064;-59
2023/01/08 05:34:45;;;;;;;6.57;0.60;;;8.70;99.90;;;;;;5049437;28;20120;-57
2023/01/08 05:37:11;;;;;;;4.00;0.45;;;8.60;99.90;;;;;;5049616;28;20037;-60
2023/01/08 05:39:37;;;;;;;3.08;0.40;;;8.60;99.90;;;;;;5048797;28;20048;-59
2023/01/08 05:42:03;;;;;;;3.53;0.60;;;8.60;99.90;;;;;;5049849;28;20049;-57
2023/01/08 05:44:28;;;;;;;6.75;0.75;;;8.50;99.90;;;;;;5049114;28;20430;-56
2023/01/08 05:46:54;;;;;;;4.57;0.80;;;8.50;99.90;;;;;;5049990;28;20047;-57
2023/01/08 05:49:23;;;;;;;4.03;0.35;;;8.50;99.90;;;;;;5050327;28;20174;-57
2023/01/08 05:51:49;;;;;;;5.25;0.75;;;8.50;99.90;;;;;;5048501;28;20041;-60
2023/01/08 05:54:15;;;;;;;;;;;8.50;99.90;;;;;;5048644;28;20132;-62
2023/01/08 05:56:42;;;;;;;12.95;0.95;;;8.50;99.90;;;;;;5050303;28;20026;-60
2023/01/08 05:59:10;;;;;;;2.70;0.75;;;8.40;99.90;;;;;;5049298;28;20052;-58
2023/01/08 06:01:36;;;;;;;5.68;0.50;;;8.40;99.90;;;;;;5050236;28;20064;-59
2023/01/08 06:04:02;;;;;;;4.35;0.60;;;8.40;99.90;;;;;;5048927;28;20481;-60
2023/01/08 06:06:27;;;;;;;2.93;0.43;;;8.40;99.90;;;;;;5049271;28;20094;-58
2023/01/08 06:08:53;;;;;;;5.40;0.75;;;8.40;99.90;;;;;;5047836;28;20491;-58
2023/01/08 06:11:18;;;;;;;3.60;0.90;;;8.40;99.90;;;;;;5050105;28;20089;-58
2023/01/08 06:13:44;;;;;;;5.37;0.40;;;8.40;99.90;;;;;;5048751;28;20111;-58
2023/01/08 06:16:11;;;;;;;3.93;0.60;;;8.40;99.90;;;;;;5049583;28;20040;-59
2023/01/08 06:18:36;;;;;;;5.00;0.60;;;8.40;99.90;;;;;;5049163;28;20040;-57
2023/01/08 06:21:04;;;;;;;4.50;0.97;;;8.40;99.90;;;;;;5049670;28;20045;-59
2023/01/08 06:23:29;;;;;;;2.92;0.60;;;8.40;99.90;;;;;;5047826;28;20539;-57
2023/01/08 06:25:57;;;;;;;4.95;0.45;;;8.40;99.90;;;;;;5048621;28;20045;-57
2023/01/08 06:28:23;;;;;;;6.82;0.50;;;8.40;99.90;;;;;;5049079;28;20044;-58
2023/01/08 06:30:49;;;;;;;6.97;0.70;;;8.40;99.90;;;;;;5050196;28;20037;-60
2023/01/08 06:33:15;;;;;;;2.88;0.50;;;8.40;99.90;;;;;;5048980;28;20037;-61
2023/01/08 06:35:40;;;;;;;12.65;1.35;;;8.40;99.90;;;;;;5038066;28;20421;-62
2023/01/08 06:38:06;;;;;;;4.53;0.73;;;8.40;99.90;;;;;;5038163;28;20273;-57
2023/01/08 06:40:31;;;;;;;5.17;0.50;;;8.40;99.90;;;;;;5048315;28;20382;-57
2023/01/08 06:43:02;;;;;;;8.33;0.77;;;8.40;99.90;;;;;;5053317;28;20041;-58
2023/01/08 06:45:27;;;;;;;1.63;0.40;;;8.40;99.90;;;;;;5052757;28;20037;-59
2023/01/08 06:47:53;;;;;;;5.77;0.97;;;8.40;99.90;;;;;;5053238;28;20040;-60
2023/01/08 06:50:18;;;;;;;4.60;0.53;;;8.40;99.90;;;;;;5052726;28;20128;-59
2023/01/08 06:52:52;;;;;;;3.13;0.57;;;8.40;99.90;;;;;;5053748;28;20076;-56
2023/01/08 06:55:19;;;;;;;4.18;0.60;;;8.40;99.90;;;;;;5052364;28;20706;-57
2023/01/08 06:57:44;;;;;;;4.45;0.82;;;8.40;99.90;;;;;;5052927;28;20059;-58
2023/01/08 07:00:10;;;;;;;3.40;0.60;;;8.30;99.90;;;;;;5053325;28;20505;-59
2023/01/08 07:02:36;;;;;;;4.60;0.70;;;8.30;99.90;;;;;;5052935;28;20044;-59
2023/01/08 07:05:02;;;;;;;6.37;0.80;;;8.30;99.90;;;;;;5051365;28;20039;-57
2023/01/08 07:07:27;;;;;;;4.70;0.70;;;8.30;99.90;;;;;;5051644;28;20041;-58
2023/01/08 07:09:53;;;;;;;2.77;0.40;;;8.30;99.90;;;;;;5050767;28;20045;-59
2023/01/08 07:12:18;;;;;;;8.37;0.90;;;8.30;99.90;;;;;;5052837;28;20048;-56
2023/01/08 07:14:44;;;;;;;3.77;0.90;;;8.30;99.90;;;;;;5051458;28;20055;-59
2023/01/08 07:17:09;;;;;;;3.87;0.77;;;8.30;99.90;;;;;;5052547;28;20044;-58
2023/01/08 07:19:35;;;;;;;3.07;0.60;;;8.30;99.90;;;;;;5052398;28;20131;-56
2023/01/08 07:22:00;;;;;;;6.23;1.23;;;8.30;99.90;;;;;;5052708;28;20037;-57
2023/01/08 07:24:26;;;;;;;4.33;0.70;;;8.30;99.90;;;;;;5051267;28;20412;-57
2023/01/08 07:26:51;;;;;;;4.10;1.00;;;8.30;99.90;;;;;;5052393;28;20045;-56
2023/01/08 07:29:17;;;;;;;6.10;1.47;;;8.30;99.90;;;;;;5052484;28;20510;-56
2023/01/08 07:31:42;;;;;;;4.53;0.80;;;8.30;99.90;;;;;;5052451;28;20029;-54
2023/01/08 07:34:08;;;;;;;3.03;0.73;;;8.40;99.90;;;;;;5051030;28;20418;-59
2023/01/08 07:36:33;;;;;;;2.57;0.47;;;8.40;99.90;;;;;;5051964;28;20479;-58
2023/01/08 07:38:59;;;;;;;6.10;1.10;;;8.40;99.90;;;;;;5052609;28;20044;-57
2023/01/08 07:41:25;;;;;;;3.33;0.93;;;8.40;99.90;;;;;;5048229;28;20041;-57
2023/01/08 07:43:51;;;;;;;3.35;0.70;;;8.40;99.90;;;;;;5051915;28;20119;-57
2023/01/08 07:46:16;;;;;;;2.73;0.50;;;8.40;99.90;;;;;;5052091;28;20041;-60
2023/01/08 07:48:42;;;;;;;4.47;0.60;;;8.30;99.90;;;;;;5051026;28;20033;-59
2023/01/08 07:51:08;;;;;;;4.63;0.83;;;8.30;99.90;;;;;;5051650;28;20096;-57
2023/01/08 07:53:35;;;;;;;4.85;0.52;;;8.30;99.90;;;;;;5051175;28;20060;-57
2023/01/08 07:56:03;;;;;;;5.18;0.70;;;8.20;99.90;;;;;;5051627;28;20048;-59
2023/01/08 07:58:30;;;;;;;7.47;1.13;;;8.20;99.90;;;;;;5051624;28;20039;-60
2023/01/08 08:00:56;;;;;;;;;;;8.20;99.90;;;;;;5052325;28;20131;-58
2023/01/08 08:03:22;;;;;;;7.97;0.73;;;8.20;99.90;;;;;;5051175;28;19928;-59
2023/01/08 08:05:48;;;;;;;;;;;8.10;99.90;;;;;;5052658;28;20501;-56
2023/01/08 08:08:13;;;;;;;9.15;1.35;;;8.10;99.90;;;;;;5051806;28;19921;-60
2023/01/08 08:10:40;;;;;;;4.70;0.60;;;8.10;99.90;;;;;;5052401;28;20068;-59
2023/01/08 08:13:06;;;;;;;1.73;0.30;;;8.10;99.90;;;;;;5049425;28;20033;-58
2023/01/08 08:15:33;;;;;;;5.63;1.48;;;8.00;99.90;;;;;;5051718;28;20505;-58
2023/01/08 08:17:59;;;;;;;;;;;8.00;99.90;;;;;;5051325;28;20123;-57
2023/01/08 08:20:24;;;;;;;5.10;0.68;;;8.00;99.90;;;;;;5052486;28;20015;-59
2023/01/08 08:22:50;;;;;;;1.13;0.35;;;8.00;99.90;;;;;;5051289;28;20045;-61
2023/01/08 08:25:16;;;;;;;3.75;0.57;;;7.90;99.90;;;;;;5050431;28;20064;-59
2023/01/08 08:27:43;;;;;;;3.53;0.88;;;7.90;99.90;;;;;;5048324;28;20140;-59
2023/01/08 08:30:09;;;;;;;5.78;0.90;;;7.90;99.90;;;;;;5056482;28;20068;-60
2023/01/08 08:32:36;;;;;;;6.72;1.33;;;8.00;99.90;;;;;;5047831;28;20037;-60
2023/01/08 08:35:02;;;;;;;1.13;0.30;;;8.10;99.90;;;;;;5050195;28;20040;-57
2023/01/08 08:37:27;;;;;;;2.53;0.38;;;8.30;99.90;;;;;;5049298;28;20078;-57
2023/01/08 08:39:53;;;;;;;3.00;0.50;;;8.50;99.90;;;;;;5050646;28;20045;-59
2023/01/08 08:42:18;;;;;;;4.03;0.50;;;8.70;99.90;;;;;;5047535;28;20033;-57
2023/01/08 08:44:44;;;;;;;4.23;1.30;;;8.90;99.90;;;;;;5049781;28;20529;-59
2023/01/08 08:47:10;;;;;;;2.58;0.63;;;9.10;99.90;;;;;;5050174;28;20049;-59
2023/01/08 08:49:35;;;;;;;3.33;0.40;;;9.40;99.90;;;;;;5049995;28;20037;-61
2023/01/08 08:52:02;;;;;;;2.40;0.20;;;9.50;99.90;;;;;;5051141;28;20111;-57
2023/01/08 08:54:28;;;;;;;3.63;0.20;;;9.70;99.90;;;;;;5049956;28;20784;-58
2023/01/08 08:56:53;;;;;;;3.33;0.60;;;9.90;99.90;;;;;;5051175;28;20048;-57
2023/01/08 08:59:19;;;;;;;12.33;0.80;;;10.10;99.90;;;;;;5050020;28;20039;-60
2023/01/08 09:01:44;;;;;;;4.63;1.03;;;10.20;99.90;;;;;;5049255;28;20091;-58
2023/01/08 09:04:10;;;;;;;2.67;0.40;;;10.40;99.90;;;;;;5049186;28;20033;-60
2023/01/08 09:06:35;;;;;;;1.80;0.77;;;10.50;99.90;;;;;;5050157;28;20426;-60
2023/01/08 09:09:01;;;;;;;5.40;0.83;;;10.60;99.90;;;;;;5050018;28;20294;-61
2023/01/08 09:11:27;;;;;;;5.32;0.55;;;10.80;99.90;;;;;;5050384;28;20029;-59
2023/01/08 09:13:52;;;;;;;4.40;0.73;;;11.00;99.90;;;;;;5049222;28;20040;-61
2023/01/08 09:16:18;;;;;;;1.60;0.30;;;11.20;99.90;;;;;;5050138;28;20383;-60
2023/01/08 09:18:44;;;;;;;1.90;0.30;;;11.40;99.90;;;;;;5048737;28;20353;-60
2023/01/08 09:21:10;;;;;;;2.35;0.52;;;11.60;99.90;;;;;;5048674;28;20033;-60
2023/01/08 09:23:35;;;;;;;2.28;0.52;;;11.80;99.90;;;;;;5040663;28;20049;-60
2023/01/08 09:26:03;;;;;;;2.47;0.22;;;12.00;99.90;;;;;;5047640;28;20040;-60
2023/01/08 09:28:29;;;;;;;1.23;0.30;;;12.30;99.90;;;;;;5050063;28;20037;-59
2023/01/08 09:30:54;;;;;;;;;;;12.60;99.90;;;;;;5049739;28;20128;-59
2023/01/08 09:33:20;;;;;;;1.33;0.47;;;13.00;99.90;;;;;;5049551;28;20011;-62
2023/01/08 09:35:45;;;;;;;2.65;0.32;;;13.20;99.90;;;;;;5048934;28;20040;-60
2023/01/08 09:38:11;;;;;;;2.85;1.05;;;13.40;99.90;;;;;;5050034;28;20072;-59
2023/01/08 09:40:50;;;;;;;2.80;0.45;;;13.60;99.90;;;;;;5048311;28;20049;-61
2023/01/08 09:43:21;;;;;;;2.20;0.17;;;13.80;99.90;;;;;;5047126;28;20049;-60
2023/01/08 09:45:56;;;;;;;3.28;0.50;;;13.90;99.90;;;;;;5049242;28;20068;-61
2023/01/08 09:48:28;;;;;;;5.15;0.50;;;14.00;99.90;;;;;;5049858;28;20045;-59
2023/01/08 09:50:54;;;;;;;5.43;0.57;;;14.20;99.90;;;;;;5049651;28;20035;-59
2023/01/08 09:53:20;;;;;;;3.75;0.60;;;14.30;99.90;;;;;;5048609;28;20371;-59
2023/01/08 09:55:55;;;;;;;4.72;0.63;;;14.40;99.90;;;;;;5048571;28;20041;-60
2023/01/08 09:58:29;;;;;;;6.45;0.88;;;14.60;99.90;;;;;;5048538;28;20045;-60
2023/01/08 10:00:55;;;;;;;3.28;0.60;;;14.70;99.90;;;;;;5048305;28;20055;-61
2023/01/08 10:03:27;;;;;;;2.15;0.30;;;14.80;99.90;;;;;;5048539;28;20033;-61
2023/01/08 10:05:53;;;;;;;2.88;0.50;;;14.60;99.90;;;;;;5048885;28;20044;-61
2023/01/08 10:08:18;;;;;;;4.53;0.45;;;13.90;99.90;;;;;;5048070;28;20029;-60
2023/01/08 10:10:45;;;;;;;3.63;0.60;;;13.50;99.90;;;;;;5049354;28;20037;-61
2023/01/08 10:13:12;;;;;;;5.13;0.65;;;13.50;99.90;;;;;;5048623;28;20416;-60
2023/01/08 10:15:40;;;;;;;6.40;0.77;;;13.70;99.90;;;;;;5048792;28;20041;-62
2023/01/08 10:18:09;;;;;;;3.80;0.80;;;14.10;99.90;;;;;;5049333;28;20048;-61
2023/01/08 10:20:36;;;;;;;4.55;0.90;;;14.50;99.90;;;;;;5049190;28;20040;-60
2023/01/08 10:23:18;;;;;;;6.07;0.85;;;14.90;99.90;;;;;;5048246;28;20079;-61
2023/01/08 10:26:01;;;;;;;5.80;0.77;;;15.20;98.70;;;;;;5048402;28;20025;-59
2023/01/08 10:28:30;;;;;;;6.93;0.77;;;15.20;98.90;;;;;;5049053;28;20052;-61
2023/01/08 10:31:15;;;;;;;9.35;1.10;;;15.20;98.00;;;;;;5048281;28;20065;-58
2023/01/08 10:33:48;;;;;;;5.45;0.50;;;14.60;97.60;;;;;;5049107;28;20032;-59
2023/01/08 10:36:23;;;;;;;4.78;0.63;;;13.90;98.00;;;;;;5048589;28;20029;-58
2023/01/08 10:38:57;;;;;;;8.85;0.77;;;13.30;99.10;;;;;;5048616;28;20513;-61
2023/01/08 10:41:23;;;;;;;3.03;0.70;;;13.40;99.90;;;;;;5048598;28;20043;-60
2023/01/08 10:44:02;;;;;;;8.45;0.82;;;14.00;99.90;;;;;;5048162;28;20029;-60
2023/01/08 10:46:29;;;;;;;9.43;1.48;;;14.90;99.90;;;;;;5048962;28;20033;-60
2023/01/08 10:48:59;;;;;;;6.45;0.82;;;15.40;99.70;;;;;;5049364;28;20124;-59
2023/01/08 10:51:28;;;;;;;8.07;0.98;;;15.70;97.40;;;;;;5044472;28;20045;-61
2023/01/08 10:53:58;;;;;;;6.13;0.80;;;15.60;94.90;;;;;;5049206;28;20033;-62
2023/01/08 10:56:30;;;;;;;10.20;0.75;;;15.60;96.20;;;;;;5048394;28;20045;-61
2023/01/08 10:58:56;;;;;;;3.55;0.77;;;15.80;96.20;;;;;;5048586;28;20049;-59
2023/01/08 11:01:27;;;;;;;7.00;0.73;;;15.70;94.80;;;;;;5048850;28;20048;-60
2023/01/08 11:04:01;;;;;;;3.83;0.93;;;15.30;94.80;;;;;;5047722;28;20045;-61
2023/01/08 11:06:32;;;;;;;6.15;1.10;;;14.70;95.80;;;;;;5048539;28;20040;-62
2023/01/08 11:09:01;;;;;;;9.60;1.05;;;14.20;97.70;;;;;;5047724;28;20510;-59
2023/01/08 11:11:37;;;;;;;7.20;1.17;;;13.70;99.20;;;;;;5048516;28;20511;-61
2023/01/08 11:14:05;;;;;;;3.47;0.88;;;13.60;99.90;;;;;;5047177;28;20131;-57
2023/01/08 11:16:34;;;;;;;7.35;0.98;;;13.60;99.90;;;;;;5049118;28;20052;-59
2023/01/08 11:19:00;;;;;;;6.97;0.90;;;14.00;99.90;;;;;;5046297;28;20041;-59
2023/01/08 11:21:30;;;;;;;15.20;1.27;;;14.50;99.90;;;;;;5047869;28;20102;-59
2023/01/08 11:24:20;;;;;;;5.10;0.63;;;15.00;99.40;;;;;;5047389;28;20498;-58
2023/01/08 11:27:15;;;;;;;9.30;1.63;;;15.90;97.20;;;;;;5030831;28;20068;-60
2023/01/08 11:30:11;;;;;;;11.90;1.50;;;16.80;95.90;;;;;;5029570;28;20131;-57
2023/01/08 11:32:54;;;;;;;5.25;0.80;;;17.00;94.40;;;;;;5040633;28;20076;-58
2023/01/08 11:35:25;;;;;;;7.32;1.00;;;16.60;93.70;;;;;;5051927;28;20068;-58
2023/01/08 11:37:58;;;;;;;4.68;0.60;;;15.50;93.80;;;;;;5051247;28;20494;-59
2023/01/08 11:40:43;;;;;;;5.90;0.98;;;14.60;96.70;;;;;;5052836;28;20044;-59
2023/01/08 11:43:39;;;;;;;7.10;1.35;;;14.00;98.60;;;;;;5051396;28;20033;-58
2023/01/08 11:46:12;;;;;;;7.25;0.65;;;13.70;99.90;;;;;;5051670;28;20059;-58
2023/01/08 11:49:13;;;;;;;7.65;1.52;;;13.60;99.90;;;;;;5051938;28;20036;-56
2023/01/08 11:51:49;;;;;;;8.20;1.05;;;13.10;99.90;;;;;;5040153;28;20047;-57
2023/01/08 11:54:42;;;;;;;8.80;1.33;;;12.90;99.90;;;;;;5050455;28;20505;-59
2023/01/08 11:57:36;;;;;;;8.98;0.70;;;13.10;99.90;;;;;;5050105;28;20044;-59
2023/01/08 12:00:36;;;;;;;6.05;0.85;;;13.40;99.90;;;;;;5052003;28;20052;-60
2023/01/08 12:03:10;;;;;;;6.90;1.25;;;13.00;99.90;;;;;;5050594;28;20053;-57
2023/01/08 12:05:57;;;;;;;4.50;0.88;;;12.40;99.90;;;;;;5051256;28;20046;-57
2023/01/08 12:08:37;;;;;;;6.63;0.70;;;11.90;99.90;;;;;;5051218;28;20084;-59
2023/01/08 12:11:29;;;;;;;10.93;1.65;;;11.60;99.90;;;;;;5032204;28;20267;-60
2023/01/08 12:14:17;;;;;;;3.92;0.85;;;11.40;99.90;;;;;;5043836;28;20036;-60
2023/01/08 12:17:03;;;;;;;8.43;1.92;;;11.30;99.90;;;;;;5051737;28;20051;-57
2023/01/08 12:19:45;;;;;;;7.47;0.95;;;11.80;99.90;;;;;;5050612;28;20052;-60
2023/01/08 12:22:35;;;;;;;8.65;1.40;;;12.40;99.90;;;;;;5047874;28;20504;-58
2023/01/08 12:25:33;;;;;;;9.35;1.13;;;13.80;99.90;;;;;;5039526;28;20029;-59
2023/01/08 12:28:14;;;;;;;3.80;0.57;;;14.60;99.90;;;;;;5051073;28;20036;-60
2023/01/08 12:31:01;;;;;;;7.47;0.95;;;14.80;99.90;;;;;;5051267;28;20039;-59
2023/01/08 12:33:33;;;;;;;6.10;0.57;;;14.50;99.90;;;;;;5051026;28;20293;-60
2023/01/08 12:36:05;;;;;;;5.28;0.70;;;13.80;99.90;;;;;;5049954;28;20059;-57
2023/01/08 12:38:37;;;;;;;7.38;0.63;;;13.30;99.90;;;;;;5050683;28;20045;-59
2023/01/08 12:41:12;;;;;;;9.98;1.60;;;13.60;99.90;;;;;;5050792;28;20462;-57
2023/01/08 12:44:00;;;;;;;9.85;0.90;;;14.40;99.90;;;;;;5050505;28;20033;-60
2023/01/08 12:46:30;;;;;;;6.22;0.50;;;15.60;99.90;;;;;;5050474;28;20049;-60
2023/01/08 12:48:56;;;;;;;10.75;0.60;;;16.70;98.80;;;;;;5050593;28;20045;-61
2023/01/08 12:51:33;;;;;;;4.78;0.88;;;17.30;96.10;;;;;;5049219;28;20072;-61
2023/01/08 12:54:25;;;;;;;8.00;1.05;;;17.40;95.30;;;;;;5050259;28;20505;-59
2023/01/08 12:57:06;;;;;;;7.28;0.70;;;17.30;94.50;;;;;;5050643;28;20552;-59
2023/01/08 12:59:38;;;;;;;8.63;0.68;;;17.80;95.80;;;;;;5051534;28;20036;-61
2023/01/08 13:02:06;;;;;;;5.25;0.40;;;18.40;94.40;;;;;;5051428;28;20454;-60
2023/01/08 13:04:42;;;;;;;3.72;0.70;;;18.70;91.50;;;;;;5049943;28;20052;-59
2023/01/08 13:07:31;;;;;;;5.85;0.63;;;18.70;91.90;;;;;;5049177;28;20142;-61